Terminal Aerodrome Forecast
Issued by NWS

Home | Current Version | Previous Version | Text Only | Print | Product List | Glossary On
Versions: 1 2 3 4 5 6 7 8 9 10 11 12 13 14 15 16 17 18 19
000
FTUS43 KPAH 281725
TAFCGI
TAF
KCGI 281725Z 2818/0118 05007KT P6SM OVC050
     FM282300 08004KT 6SM -SN BKN015 OVC035
     FM010700 00000KT 2SM -FZRA BR OVC007
     FM011400 03003KT 3SM -DZ BR OVC008=

USA.gov is the U.S. government's official web portal to all federal, state and local government web resources and services.